Time;durP1;ratioP1;P1;durP2;ratioP2;P2;SDS_P1;SDS_P2;PMS_P1;PMS_P2;Temp;Humidity;BMP_temperature;BMP_pressure;BME280_temperature;BME280_humidity;BME280_pressure;Samples;Min_cycle;Max_cycle;Signal;HPM_P1;HPM_P2
2021/06/12 00:00:33;;;;;;;2.97;2.78;;;;;;;;;;5001400;28;20029;-62
2021/06/12 00:03:00;;;;;;;2.90;2.70;;;;;;;;;;5003598;28;20392;-62
2021/06/12 00:05:26;;;;;;;2.88;2.67;;;;;;;;;;5001836;28;20092;-62
2021/06/12 00:07:52;;;;;;;3.03;2.83;;;;;;;;;;5009120;28;20017;-62
2021/06/12 00:10:38;;;;;;;2.75;2.65;;;;;;;;;;5006129;28;20041;-62
2021/06/12 00:13:05;;;;;;;2.33;2.20;;;;;;;;;;5001596;28;20117;-62
2021/06/12 00:15:32;;;;;;;3.10;2.90;;;;;;;;;;4999909;28;20057;-62
2021/06/12 00:17:58;;;;;;;4.32;2.90;;;;;;;;;;5002766;28;20037;-62
2021/06/12 00:20:27;;;;;;;2.80;2.60;;;;;;;;;;5002591;28;20022;-62
2021/06/12 00:22:53;;;;;;;3.08;2.88;;;;;;;;;;5013528;28;20591;-62
2021/06/12 00:25:23;;;;;;;3.35;3.15;;;;;;;;;;5002548;28;20030;-62
2021/06/12 00:27:49;;;;;;;3.20;3.00;;;;;;;;;;5008034;28;20344;-62
2021/06/12 00:30:15;;;;;;;3.20;2.90;;;;;;;;;;5021384;28;20037;-62
2021/06/12 00:32:41;;;;;;;3.03;2.83;;;;;;;;;;4999156;28;20488;-62
2021/06/12 00:35:10;;;;;;;2.97;2.78;;;;;;;;;;5003110;28;20045;-62
2021/06/12 00:37:37;;;;;;;3.00;2.70;;;;;;;;;;4997733;28;20061;-62
2021/06/12 00:40:05;;;;;;;3.05;2.85;;;;;;;;;;5007390;28;20022;-62
2021/06/12 00:42:31;;;;;;;3.00;2.80;;;;;;;;;;5003546;28;20183;-62
2021/06/12 00:44:56;;;;;;;2.80;2.60;;;;;;;;;;5006172;28;20056;-62
2021/06/12 00:47:22;;;;;;;2.88;2.72;;;;;;;;;;4997928;28;20092;-62
2021/06/12 00:49:47;;;;;;;3.13;2.80;;;;;;;;;;5004314;28;20037;-62
2021/06/12 00:52:13;;;;;;;3.35;3.10;;;;;;;;;;5003682;28;20120;-62
2021/06/12 00:54:38;;;;;;;3.08;2.80;;;;;;;;;;5005770;28;20164;-62
2021/06/12 00:57:04;;;;;;;2.70;2.50;;;;;;;;;;5006615;28;20038;-62
2021/06/12 00:59:32;;;;;;;2.95;2.75;;;;;;;;;;5002634;28;20030;-61
2021/06/12 01:01:57;;;;;;;3.10;2.90;;;;;;;;;;5000402;28;20034;-62
2021/06/12 01:04:23;;;;;;;3.25;3.05;;;;;;;;;;5000325;28;20504;-62
2021/06/12 01:06:51;;;;;;;3.08;2.88;;;;;;;;;;5001414;28;20510;-62
2021/06/12 01:09:22;;;;;;;3.47;3.20;;;;;;;;;;5021952;28;20034;-62
2021/06/12 01:12:06;;;;;;;3.08;2.88;;;;;;;;;;5001390;28;20208;-62
2021/06/12 01:14:35;;;;;;;3.42;3.17;;;;;;;;;;5006658;28;20034;-62
2021/06/12 01:17:23;;;;;;;3.30;3.10;;;;;;;;;;4998971;28;20044;-62
2021/06/12 01:20:00;;;;;;;2.97;2.78;;;;;;;;;;5003715;28;20333;-62
2021/06/12 01:22:35;;;;;;;3.22;2.90;;;;;;;;;;4998243;28;20595;-61
2021/06/12 01:25:26;;;;;;;3.13;2.92;;;;;;;;;;5006533;28;20120;-62
2021/06/12 01:28:19;;;;;;;3.45;3.25;;;;;;;;;;4998530;28;20045;-62
2021/06/12 01:30:48;;;;;;;3.00;2.70;;;;;;;;;;5001622;28;20053;-62
2021/06/12 01:33:14;;;;;;;3.20;3.00;;;;;;;;;;5005945;28;20030;-62
2021/06/12 01:35:48;;;;;;;3.10;2.90;;;;;;;;;;5000042;28;20042;-62
2021/06/12 01:38:44;;;;;;;3.28;3.08;;;;;;;;;;4996858;28;20519;-62
2021/06/12 01:41:12;;;;;;;3.70;3.50;;;;;;;;;;4996785;28;20038;-62
2021/06/12 01:43:39;;;;;;;3.30;3.10;;;;;;;;;;5004684;28;20523;-62
2021/06/12 01:46:12;;;;;;;3.25;3.05;;;;;;;;;;5007624;28;20036;-62
2021/06/12 01:48:41;;;;;;;3.20;3.00;;;;;;;;;;5003514;28;20148;-62
2021/06/12 01:51:07;;;;;;;3.08;2.88;;;;;;;;;;4996730;28;20033;-62
2021/06/12 01:53:33;;;;;;;4.50;3.30;;;;;;;;;;5004206;28;20053;-62
2021/06/12 01:56:01;;;;;;;3.20;2.97;;;;;;;;;;4991022;28;20436;-62
2021/06/12 01:58:27;;;;;;;3.17;2.97;;;;;;;;;;4999971;28;20030;-62
2021/06/12 02:00:54;;;;;;;3.35;3.05;;;;;;;;;;5004063;28;20345;-62
2021/06/12 02:03:21;;;;;;;3.40;3.20;;;;;;;;;;5002250;28;20603;-61
2021/06/12 02:05:48;;;;;;;3.15;2.95;;;;;;;;;;4999232;28;20149;-61
2021/06/12 02:08:15;;;;;;;3.47;2.90;;;;;;;;;;4999492;28;20405;-62
2021/06/12 02:10:42;;;;;;;2.60;2.50;;;;;;;;;;5000924;28;20040;-61
2021/06/12 02:13:09;;;;;;;3.10;2.80;;;;;;;;;;5002602;28;20068;-61
2021/06/12 02:15:36;;;;;;;3.40;3.20;;;;;;;;;;5000660;28;20029;-62
2021/06/12 02:18:04;;;;;;;3.22;3.03;;;;;;;;;;5005209;28;20515;-62
2021/06/12 02:20:32;;;;;;;2.95;2.75;;;;;;;;;;5004151;28;20022;-63
2021/06/12 02:22:58;;;;;;;3.00;2.80;;;;;;;;;;5001454;28;20034;-62
2021/06/12 02:25:24;;;;;;;3.33;3.13;;;;;;;;;;5008140;28;20136;-62
2021/06/12 02:27:53;;;;;;;3.42;3.22;;;;;;;;;;5005040;28;20100;-62
2021/06/12 02:30:22;;;;;;;3.22;3.03;;;;;;;;;;4998238;28;20524;-62
2021/06/12 02:32:53;;;;;;;2.85;2.70;;;;;;;;;;5006020;28;20053;-62
2021/06/12 02:35:18;;;;;;;3.20;3.00;;;;;;;;;;4998641;28;20034;-62
2021/06/12 02:37:45;;;;;;;3.17;2.97;;;;;;;;;;5002246;28;20037;-62
2021/06/12 02:40:11;;;;;;;2.85;2.75;;;;;;;;;;4998909;28;20089;-62
2021/06/12 02:42:37;;;;;;;3.03;2.88;;;;;;;;;;5000089;28;20036;-61
2021/06/12 02:45:05;;;;;;;2.92;2.70;;;;;;;;;;5002835;28;20465;-61
2021/06/12 02:47:34;;;;;;;2.80;2.60;;;;;;;;;;5000376;28;20065;-62
2021/06/12 02:50:01;;;;;;;3.38;3.17;;;;;;;;;;4998412;28;20437;-62
2021/06/12 02:52:30;;;;;;;3.13;2.80;;;;;;;;;;5005150;28;20352;-61
2021/06/12 02:54:58;;;;;;;3.47;3.20;;;;;;;;;;5002583;28;20034;-62
2021/06/12 02:57:25;;;;;;;3.20;3.00;;;;;;;;;;4996951;28;20041;-61
2021/06/12 02:59:53;;;;;;;4.35;3.08;;;;;;;;;;5002903;28;20028;-61
2021/06/12 03:02:20;;;;;;;3.35;3.15;;;;;;;;;;5002780;28;20121;-62
2021/06/12 03:04:47;;;;;;;3.28;3.03;;;;;;;;;;4993908;28;20057;-62
2021/06/12 03:07:14;;;;;;;3.45;3.25;;;;;;;;;;5002723;28;20025;-61
2021/06/12 03:09:43;;;;;;;3.30;3.10;;;;;;;;;;5004144;28;20045;-61
2021/06/12 03:12:10;;;;;;;3.33;3.13;;;;;;;;;;5002104;28;20109;-62
2021/06/12 03:14:39;;;;;;;3.70;3.50;;;;;;;;;;4998649;28;20396;-61
2021/06/12 03:17:06;;;;;;;3.47;3.20;;;;;;;;;;5004333;28;20028;-62
2021/06/12 03:19:32;;;;;;;3.22;3.03;;;;;;;;;;5001771;28;20032;-62
2021/06/12 03:21:59;;;;;;;3.60;3.40;;;;;;;;;;4997435;28;20415;-62
2021/06/12 03:24:25;;;;;;;3.80;3.47;;;;;;;;;;4994953;28;20547;-62
2021/06/12 03:26:51;;;;;;;3.45;3.20;;;;;;;;;;4999613;28;20322;-61
2021/06/12 03:29:17;;;;;;;3.45;3.25;;;;;;;;;;5003376;28;20039;-61
2021/06/12 03:31:42;;;;;;;3.88;3.40;;;;;;;;;;5002368;28;20060;-62
2021/06/12 03:34:08;;;;;;;3.60;3.30;;;;;;;;;;5004301;28;20037;-62
2021/06/12 03:36:34;;;;;;;3.20;3.00;;;;;;;;;;4997186;28;20068;-62
2021/06/12 03:38:59;;;;;;;3.42;3.22;;;;;;;;;;4999247;28;20052;-61
2021/06/12 03:41:25;;;;;;;3.90;3.47;;;;;;;;;;4998487;28;20072;-62
2021/06/12 03:43:51;;;;;;;3.42;3.22;;;;;;;;;;5000204;28;20037;-61
2021/06/12 03:46:18;;;;;;;3.17;2.97;;;;;;;;;;5000748;28;20087;-61
2021/06/12 03:48:46;;;;;;;3.67;3.38;;;;;;;;;;5000932;28;20041;-61
2021/06/12 03:51:14;;;;;;;3.30;3.10;;;;;;;;;;4998403;28;20531;-62
2021/06/12 03:53:44;;;;;;;3.00;2.80;;;;;;;;;;4994802;28;20443;-61
2021/06/12 03:56:30;;;;;;;3.50;3.30;;;;;;;;;;5002733;28;20063;-61
2021/06/12 03:58:56;;;;;;;3.70;3.40;;;;;;;;;;5003658;28;20026;-61
2021/06/12 04:01:21;;;;;;;3.40;3.20;;;;;;;;;;5002347;28;20033;-62
2021/06/12 04:03:47;;;;;;;3.38;3.17;;;;;;;;;;4993953;28;20034;-61
2021/06/12 04:06:12;;;;;;;4.68;3.28;;;;;;;;;;4997901;28;20039;-61
2021/06/12 04:08:38;;;;;;;3.67;3.38;;;;;;;;;;5001991;28;20029;-61
2021/06/12 04:11:05;;;;;;;3.40;3.20;;;;;;;;;;4999992;28;20522;-61
2021/06/12 04:13:31;;;;;;;3.40;3.20;;;;;;;;;;4998159;28;20034;-60
2021/06/12 04:15:56;;;;;;;3.53;3.25;;;;;;;;;;4999696;28;20377;-60
2021/06/12 04:18:22;;;;;;;3.72;3.42;;;;;;;;;;4996855;28;20030;-60
2021/06/12 04:20:47;;;;;;;3.90;3.70;;;;;;;;;;4999751;28;20120;-60
2021/06/12 04:23:13;;;;;;;4.15;3.75;;;;;;;;;;4996405;28;20468;-61
2021/06/12 04:25:39;;;;;;;3.50;3.20;;;;;;;;;;5000364;28;20033;-60
2021/06/12 04:28:05;;;;;;;3.78;3.55;;;;;;;;;;5002649;28;20508;-60
2021/06/12 04:30:31;;;;;;;5.55;3.60;;;;;;;;;;5003373;28;20037;-60
2021/06/12 04:32:57;;;;;;;3.33;3.13;;;;;;;;;;5001155;28;20076;-60
2021/06/12 04:35:23;;;;;;;3.92;3.72;;;;;;;;;;4999994;28;20487;-60
2021/06/12 04:37:48;;;;;;;4.00;3.70;;;;;;;;;;5003137;28;20026;-60
2021/06/12 04:40:14;;;;;;;3.67;3.47;;;;;;;;;;4999809;28;20129;-60
2021/06/12 04:42:42;;;;;;;4.05;3.58;;;;;;;;;;5002779;28;20053;-60
2021/06/12 04:45:09;;;;;;;5.15;3.15;;;;;;;;;;5004568;28;20034;-60
2021/06/12 04:47:35;;;;;;;3.65;3.45;;;;;;;;;;5005747;28;20041;-60
2021/06/12 04:50:00;;;;;;;4.05;3.75;;;;;;;;;;5001094;28;20061;-60
2021/06/12 04:52:26;;;;;;;3.70;3.40;;;;;;;;;;5001534;28;20472;-60
2021/06/12 04:54:52;;;;;;;3.50;3.20;;;;;;;;;;4997960;28;20038;-60
2021/06/12 04:57:18;;;;;;;3.72;3.53;;;;;;;;;;4999572;28;20042;-60
2021/06/12 04:59:43;;;;;;;3.72;3.42;;;;;;;;;;5002546;28;20117;-60
2021/06/12 05:02:09;;;;;;;3.65;3.35;;;;;;;;;;5005706;28;20461;-60
2021/06/12 05:04:34;;;;;;;3.95;3.58;;;;;;;;;;5014653;28;20084;-60
2021/06/12 05:07:00;;;;;;;3.40;3.20;;;;;;;;;;4999488;28;20034;-60
2021/06/12 05:09:25;;;;;;;3.72;3.47;;;;;;;;;;5001601;28;20026;-59
2021/06/12 05:11:51;;;;;;;4.60;4.20;;;;;;;;;;5000459;28;20029;-60
2021/06/12 05:14:20;;;;;;;4.40;4.10;;;;;;;;;;5001374;28;20042;-60
2021/06/12 05:16:46;;;;;;;4.95;4.43;;;;;;;;;;5007652;28;20456;-59
2021/06/12 05:19:11;;;;;;;4.50;4.20;;;;;;;;;;5004752;28;20033;-59
2021/06/12 05:21:38;;;;;;;4.78;4.45;;;;;;;;;;5003136;28;20117;-60
2021/06/12 05:24:04;;;;;;;4.82;4.53;;;;;;;;;;5000831;28;20093;-59
2021/06/12 05:26:30;;;;;;;5.40;4.95;;;;;;;;;;5001442;28;20373;-60
2021/06/12 05:28:55;;;;;;;5.00;4.70;;;;;;;;;;5000924;28;20046;-60
2021/06/12 05:31:21;;;;;;;4.50;4.20;;;;;;;;;;4995385;28;20029;-61
2021/06/12 05:33:47;;;;;;;4.65;4.35;;;;;;;;;;5002088;28;20042;-59
2021/06/12 05:36:12;;;;;;;4.38;4.07;;;;;;;;;;4999946;28;20034;-60
2021/06/12 05:38:38;;;;;;;4.78;4.32;;;;;;;;;;5001868;28;20045;-59
2021/06/12 05:41:03;;;;;;;4.70;3.75;;;;;;;;;;5001727;28;21488;-60
2021/06/12 05:43:29;;;;;;;4.30;4.00;;;;;;;;;;5003764;28;20033;-59
2021/06/12 05:45:54;;;;;;;4.40;4.10;;;;;;;;;;4998405;28;20018;-60
2021/06/12 05:48:20;;;;;;;3.63;3.33;;;;;;;;;;5003950;28;20034;-59
2021/06/12 05:50:46;;;;;;;3.60;3.40;;;;;;;;;;5004533;28;20045;-60
2021/06/12 05:53:11;;;;;;;3.58;3.38;;;;;;;;;;4999636;28;20027;-60
2021/06/12 05:55:37;;;;;;;3.90;3.60;;;;;;;;;;5005862;28;20048;-60
2021/06/12 05:58:02;;;;;;;3.45;3.20;;;;;;;;;;4999545;28;20030;-61
2021/06/12 06:00:28;;;;;;;3.28;3.08;;;;;;;;;;4997248;28;20022;-61
2021/06/12 06:02:54;;;;;;;3.55;3.33;;;;;;;;;;4997745;28;20476;-60
2021/06/12 06:05:19;;;;;;;4.00;3.45;;;;;;;;;;5023742;28;20364;-61
2021/06/12 06:07:45;;;;;;;3.88;3.58;;;;;;;;;;4997828;28;20069;-60
2021/06/12 06:10:10;;;;;;;3.65;3.35;;;;;;;;;;5018332;28;20048;-61
2021/06/12 06:12:36;;;;;;;3.80;3.45;;;;;;;;;;5001655;28;20030;-60
2021/06/12 06:15:03;;;;;;;3.67;3.38;;;;;;;;;;4999660;28;20025;-60
2021/06/12 06:17:29;;;;;;;3.78;3.45;;;;;;;;;;5005621;28;20123;-60
2021/06/12 06:19:54;;;;;;;3.67;3.38;;;;;;;;;;5001494;28;20123;-60
2021/06/12 06:22:20;;;;;;;4.15;3.85;;;;;;;;;;4998485;28;20108;-60
2021/06/12 06:24:45;;;;;;;4.70;4.32;;;;;;;;;;5011139;28;20488;-60
2021/06/12 06:27:11;;;;;;;4.53;4.13;;;;;;;;;;5001183;28;20041;-60
2021/06/12 06:29:36;;;;;;;4.93;4.28;;;;;;;;;;5004113;28;20109;-61
2021/06/12 06:32:02;;;;;;;4.60;4.20;;;;;;;;;;5004893;28;20392;-61
2021/06/12 06:34:27;;;;;;;5.75;4.28;;;;;;;;;;4998006;28;20041;-61
2021/06/12 06:36:53;;;;;;;4.20;3.90;;;;;;;;;;4996722;28;20125;-61
2021/06/12 06:39:18;;;;;;;4.57;4.03;;;;;;;;;;5014390;28;20441;-61
2021/06/12 06:41:44;;;;;;;4.30;4.00;;;;;;;;;;5001084;28;20032;-61
2021/06/12 06:44:09;;;;;;;4.40;4.00;;;;;;;;;;4997306;28;20033;-61
2021/06/12 06:46:35;;;;;;;4.28;3.97;;;;;;;;;;5002840;28;20472;-61
2021/06/12 06:49:00;;;;;;;4.38;3.90;;;;;;;;;;5002837;28;20331;-61
2021/06/12 06:51:25;;;;;;;4.07;3.67;;;;;;;;;;5001445;28;20025;-60
2021/06/12 06:53:51;;;;;;;3.85;3.30;;;;;;;;;;4997529;28;20145;-60
2021/06/12 06:56:17;;;;;;;3.80;3.50;;;;;;;;;;4998713;28;20482;-60
2021/06/12 06:58:42;;;;;;;3.85;3.55;;;;;;;;;;4996260;28;20042;-61
2021/06/12 07:01:08;;;;;;;3.85;3.50;;;;;;;;;;5001612;28;20026;-60
2021/06/12 07:03:33;;;;;;;4.47;4.18;;;;;;;;;;5002878;28;20034;-60
2021/06/12 07:05:59;;;;;;;3.90;3.60;;;;;;;;;;5002619;28;20437;-61
2021/06/12 07:08:24;;;;;;;3.70;3.50;;;;;;;;;;5000522;28;20033;-61
2021/06/12 07:10:50;;;;;;;3.50;3.30;;;;;;;;;;4998402;28;20021;-60
2021/06/12 07:13:20;;;;;;;4.30;3.78;;;;;;;;;;4998696;28;20034;-61
2021/06/12 07:15:46;;;;;;;3.88;3.58;;;;;;;;;;5001281;28;20037;-61
2021/06/12 07:18:11;;;;;;;3.20;3.00;;;;;;;;;;5005621;28;20079;-61
2021/06/12 07:20:37;;;;;;;3.78;3.47;;;;;;;;;;4999991;28;20033;-60
2021/06/12 07:23:02;;;;;;;3.97;3.60;;;;;;;;;;5003644;28;20113;-60
2021/06/12 07:25:28;;;;;;;3.50;3.30;;;;;;;;;;5001420;28;20030;-60
2021/06/12 07:27:53;;;;;;;3.50;3.30;;;;;;;;;;4996760;28;20063;-59
2021/06/12 07:30:19;;;;;;;5.35;3.55;;;;;;;;;;5008724;28;20071;-58
2021/06/12 07:32:45;;;;;;;3.50;3.20;;;;;;;;;;5009069;28;20096;-62
2021/06/12 07:35:11;;;;;;;3.67;3.35;;;;;;;;;;4998978;28;20041;-62
2021/06/12 07:37:37;;;;;;;3.78;3.10;;;;;;;;;;4997825;28;20670;-60
2021/06/12 07:40:04;;;;;;;3.28;3.00;;;;;;;;;;5004764;28;20040;-63
2021/06/12 07:42:29;;;;;;;3.42;3.17;;;;;;;;;;5006802;28;20655;-62
2021/06/12 07:44:55;;;;;;;3.53;3.20;;;;;;;;;;5001986;28;20476;-61
2021/06/12 07:47:20;;;;;;;3.30;3.10;;;;;;;;;;5005261;28;20054;-62
2021/06/12 07:49:46;;;;;;;3.17;2.83;;;;;;;;;;4996045;28;20033;-61
2021/06/12 07:52:11;;;;;;;3.13;2.80;;;;;;;;;;4995036;28;20039;-62
2021/06/12 07:54:37;;;;;;;3.20;3.00;;;;;;;;;;5001524;28;20057;-61
2021/06/12 07:57:02;;;;;;;3.20;3.00;;;;;;;;;;5003230;28;20026;-60
2021/06/12 07:59:28;;;;;;;3.25;2.97;;;;;;;;;;4999760;28;20025;-60
2021/06/12 08:01:53;;;;;;;3.22;2.97;;;;;;;;;;4997775;28;20467;-60
2021/06/12 08:04:19;;;;;;;2.60;2.40;;;;;;;;;;4994813;28;20031;-59
2021/06/12 08:06:44;;;;;;;2.90;2.70;;;;;;;;;;4997801;28;20030;-60
2021/06/12 08:09:10;;;;;;;2.42;2.22;;;;;;;;;;5004332;28;20041;-59
2021/06/12 08:11:35;;;;;;;3.22;2.95;;;;;;;;;;4996247;28;20052;-60
2021/06/12 08:14:01;;;;;;;2.83;2.58;;;;;;;;;;5006237;28;20032;-59
2021/06/12 08:16:27;;;;;;;4.90;2.72;;;;;;;;;;5001902;28;20022;-60
2021/06/12 08:18:53;;;;;;;2.83;2.63;;;;;;;;;;5007651;28;20026;-59
2021/06/12 08:21:18;;;;;;;2.50;2.30;;;;;;;;;;5017588;28;20034;-61
2021/06/12 08:23:44;;;;;;;2.63;2.40;;;;;;;;;;5001317;28;20041;-61
2021/06/12 08:26:09;;;;;;;2.85;2.38;;;;;;;;;;5000598;28;20038;-59
2021/06/12 08:28:35;;;;;;;2.83;2.63;;;;;;;;;;4998274;28;20079;-59
2021/06/12 08:31:03;;;;;;;3.67;2.58;;;;;;;;;;5005610;28;20087;-61
2021/06/12 08:33:28;;;;;;;2.80;2.60;;;;;;;;;;5007030;28;20025;-60
2021/06/12 08:35:54;;;;;;;2.47;2.28;;;;;;;;;;5009401;28;20034;-59
2021/06/12 08:38:19;;;;;;;2.42;2.22;;;;;;;;;;5002434;28;20077;-60
2021/06/12 08:40:47;;;;;;;2.88;2.67;;;;;;;;;;5006168;28;20025;-60
2021/06/12 08:43:27;;;;;;;2.53;2.33;;;;;;;;;;5007349;28;20111;-61
2021/06/12 08:45:58;;;;;;;2.95;2.70;;;;;;;;;;5004099;28;20022;-60
2021/06/12 08:48:25;;;;;;;2.72;2.40;;;;;;;;;;4998651;28;20030;-61
2021/06/12 08:50:51;;;;;;;2.70;2.50;;;;;;;;;;5000661;28;20037;-60
2021/06/12 08:53:17;;;;;;;2.80;2.60;;;;;;;;;;5001224;28;20021;-61
2021/06/12 08:55:43;;;;;;;3.22;2.70;;;;;;;;;;4999350;28;20113;-61
2021/06/12 08:58:09;;;;;;;3.17;2.70;;;;;;;;;;5007520;28;20084;-61
2021/06/12 09:00:36;;;;;;;2.78;2.55;;;;;;;;;;5008389;28;20037;-61
2021/06/12 09:03:10;;;;;;;2.50;2.30;;;;;;;;;;5001676;28;20029;-61
2021/06/12 09:05:54;;;;;;;2.97;2.78;;;;;;;;;;5001207;28;20504;-61
2021/06/12 09:08:25;;;;;;;3.00;2.80;;;;;;;;;;5006101;28;20104;-61
2021/06/12 09:11:24;;;;;;;2.80;2.60;;;;;;;;;;5000307;28;20102;-61
2021/06/12 09:13:54;;;;;;;3.60;2.97;;;;;;;;;;4998889;28;20038;-60
2021/06/12 09:16:31;;;;;;;3.38;2.80;;;;;;;;;;4999708;28;20065;-62
2021/06/12 09:19:03;;;;;;;2.70;2.50;;;;;;;;;;5007209;28;20419;-61
2021/06/12 09:21:38;;;;;;;3.20;3.00;;;;;;;;;;5004931;28;20038;-61
2021/06/12 09:24:06;;;;;;;4.32;3.92;;;;;;;;;;5010182;28;20556;-61
2021/06/12 09:26:43;;;;;;;2.97;2.40;;;;;;;;;;5005095;28;20504;-61
2021/06/12 09:29:09;;;;;;;3.88;2.35;;;;;;;;;;5000837;28;20173;-61
2021/06/12 09:31:44;;;;;;;2.47;2.28;;;;;;;;;;5020928;28;20124;-61
2021/06/12 09:34:12;;;;;;;2.70;2.50;;;;;;;;;;4997805;28;20027;-61
2021/06/12 09:36:38;;;;;;;3.53;2.50;;;;;;;;;;5003634;28;20100;-62
2021/06/12 09:39:11;;;;;;;2.40;2.20;;;;;;;;;;5019394;28;20117;-64
2021/06/12 09:41:39;;;;;;;2.55;2.35;;;;;;;;;;5000146;28;20044;-63
2021/06/12 09:44:05;;;;;;;2.80;2.40;;;;;;;;;;4994979;28;20026;-61
2021/06/12 09:46:45;;;;;;;2.75;2.35;;;;;;;;;;5005596;28;20048;-61
2021/06/12 09:49:14;;;;;;;3.13;2.85;;;;;;;;;;5001536;28;20452;-61
2021/06/12 09:51:40;;;;;;;2.60;2.20;;;;;;;;;;5005467;28;20062;-61
2021/06/12 09:54:06;;;;;;;2.42;2.22;;;;;;;;;;5005076;28;20018;-61
2021/06/12 09:56:33;;;;;;;2.70;2.20;;;;;;;;;;5000162;28;20030;-62
2021/06/12 09:59:00;;;;;;;2.33;2.13;;;;;;;;;;5002026;28;20435;-63
2021/06/12 10:01:30;;;;;;;3.03;2.33;;;;;;;;;;4999783;28;20099;-61
2021/06/12 10:04:13;;;;;;;2.85;2.30;;;;;;;;;;5015181;28;20084;-62
2021/06/12 10:06:39;;;;;;;2.85;2.60;;;;;;;;;;4998009;28;20037;-61
2021/06/12 10:09:06;;;;;;;4.00;2.45;;;;;;;;;;5001895;28;20030;-62
2021/06/12 10:11:33;;;;;;;5.05;3.03;;;;;;;;;;5002614;28;20475;-64
2021/06/12 10:13:59;;;;;;;6.43;3.03;;;;;;;;;;5001304;28;20022;-65
2021/06/12 10:16:27;;;;;;;4.97;3.40;;;;;;;;;;5001782;28;20500;-62
2021/06/12 10:18:55;;;;;;;4.03;3.33;;;;;;;;;;4998735;28;20021;-60
2021/06/12 10:21:21;;;;;;;4.75;3.20;;;;;;;;;;5015756;28;20038;-61
2021/06/12 10:23:48;;;;;;;4.93;3.60;;;;;;;;;;4995963;28;20496;-62
2021/06/12 10:26:16;;;;;;;7.07;3.55;;;;;;;;;;5000894;28;20400;-61
2021/06/12 10:28:41;;;;;;;3.85;3.55;;;;;;;;;;5011122;28;20034;-61
2021/06/12 10:31:09;;;;;;;3.97;3.67;;;;;;;;;;5007833;28;20029;-62
2021/06/12 10:33:39;;;;;;;3.95;3.65;;;;;;;;;;4997817;28;20033;-62
2021/06/12 10:36:16;;;;;;;3.55;3.25;;;;;;;;;;5001199;28;20037;-64
2021/06/12 10:38:42;;;;;;;3.95;3.65;;;;;;;;;;5004231;28;20025;-62
2021/06/12 10:41:24;;;;;;;3.55;3.22;;;;;;;;;;5005427;28;20475;-62
2021/06/12 10:43:53;;;;;;;3.55;3.25;;;;;;;;;;5001820;28;20034;-63
2021/06/12 10:46:28;;;;;;;;;;;;;;;;;;5005300;28;20372;-62
2021/06/12 10:48:54;;;;;;;5.15;3.67;;;;;;;;;;4997354;28;20396;-61
2021/06/12 10:51:26;;;;;;;4.40;3.97;;;;;;;;;;5002880;28;20045;-62
2021/06/12 10:56:40;;;;;;;3.35;3.03;;;;;;;;;;5001091;28;20130;-61
2021/06/12 10:59:07;;;;;;;3.20;2.90;;;;;;;;;;5006104;28;20122;-60
2021/06/12 11:01:32;;;;;;;3.40;3.10;;;;;;;;;;5005286;28;20053;-61
2021/06/12 11:09:35;;;;;;;2.45;2.20;;;;;;;;;;5001076;28;20041;-62
2021/06/12 11:12:02;;;;;;;2.35;2.15;;;;;;;;;;5001287;28;20451;-62
2021/06/12 11:14:33;;;;;;;2.88;1.90;;;;;;;;;;5003125;28;20065;-62
2021/06/12 11:19:31;;;;;;;2.83;1.70;;;;;;;;;;5004329;28;20025;-63
2021/06/12 11:22:35;;;;;;;1.48;1.38;;;;;;;;;;4998974;28;20504;-62
2021/06/12 11:25:08;;;;;;;1.83;1.67;;;;;;;;;;4996282;28;20152;-61
2021/06/12 11:27:40;;;;;;;1.90;1.55;;;;;;;;;;4999526;28;20165;-62
2021/06/12 11:30:17;;;;;;;2.00;1.70;;;;;;;;;;5003032;28;20472;-63
2021/06/12 11:32:58;;;;;;;1.77;1.67;;;;;;;;;;5001412;28;20500;-62
2021/06/12 11:35:49;;;;;;;1.80;1.70;;;;;;;;;;4998300;28;20037;-62
2021/06/12 11:38:27;;;;;;;2.40;1.80;;;;;;;;;;4999250;28;20037;-61
2021/06/12 11:41:05;;;;;;;1.85;1.40;;;;;;;;;;4998111;28;20444;-61
2021/06/12 11:43:45;;;;;;;1.83;1.38;;;;;;;;;;4993982;28;20441;-61
2021/06/12 11:46:12;;;;;;;5.78;1.63;;;;;;;;;;5002875;28;20044;-61
2021/06/12 11:48:54;;;;;;;2.17;1.60;;;;;;;;;;4996654;28;20036;-61
2021/06/12 11:51:25;;;;;;;3.55;2.08;;;;;;;;;;5003272;28;20034;-62
2021/06/12 11:54:05;;;;;;;1.98;1.60;;;;;;;;;;5004481;28;20034;-61
2021/06/12 11:56:47;;;;;;;1.55;1.40;;;;;;;;;;5003519;28;20057;-61
2021/06/12 11:59:16;;;;;;;2.75;1.50;;;;;;;;;;4994039;28;20404;-61
2021/06/12 12:01:43;;;;;;;;;;;;;;;;;;5004458;28;20441;-61
2021/06/12 12:04:19;;;;;;;1.70;1.20;;;;;;;;;;4994901;28;20455;-61
2021/06/12 12:06:53;;;;;;;1.67;1.10;;;;;;;;;;5000554;28;20022;-62
2021/06/12 12:09:26;;;;;;;2.53;1.50;;;;;;;;;;4995435;28;20089;-61
2021/06/12 12:11:57;;;;;;;2.35;1.38;;;;;;;;;;4999558;28;20088;-60
2021/06/12 12:14:33;;;;;;;1.10;1.10;;;;;;;;;;4999511;28;20030;-60
2021/06/12 12:16:58;;;;;;;1.25;1.15;;;;;;;;;;5005645;28;20025;-61
2021/06/12 12:19:24;;;;;;;1.58;1.20;;;;;;;;;;5002829;28;20076;-61
2021/06/12 12:21:53;;;;;;;2.10;1.20;;;;;;;;;;5006058;28;20345;-62
2021/06/12 12:24:20;;;;;;;1.42;1.33;;;;;;;;;;5006112;28;20026;-62
2021/06/12 12:26:57;;;;;;;1.45;1.10;;;;;;;;;;5002176;28;20087;-62
2021/06/12 12:29:24;;;;;;;1.58;1.30;;;;;;;;;;5000525;28;20035;-61
2021/06/12 12:31:50;;;;;;;1.67;1.10;;;;;;;;;;4996283;28;20229;-61
2021/06/12 12:34:51;;;;;;;1.17;1.08;;;;;;;;;;4997540;28;20220;-63
2021/06/12 12:37:23;;;;;;;1.60;1.10;;;;;;;;;;4997942;28;20109;-61
2021/06/12 12:39:51;;;;;;;1.10;1.00;;;;;;;;;;5014917;28;20033;-62
2021/06/12 12:42:18;;;;;;;;;;;;;;;;;;4997816;28;20204;-62
2021/06/12 12:44:45;;;;;;;1.10;1.00;;;;;;;;;;5002444;28;19992;-62
2021/06/12 12:47:20;;;;;;;1.23;1.00;;;;;;;;;;4995196;28;20037;-61
2021/06/12 12:49:46;;;;;;;1.73;0.98;;;;;;;;;;5000266;28;20460;-62
2021/06/12 12:52:26;;;;;;;1.20;1.10;;;;;;;;;;4992976;28;20057;-62
2021/06/12 12:55:02;;;;;;;1.98;1.10;;;;;;;;;;4998167;28;20038;-63
2021/06/12 12:57:40;;;;;;;1.25;1.15;;;;;;;;;;5005775;28;20093;-63
2021/06/12 13:00:16;;;;;;;1.73;1.20;;;;;;;;;;5003570;28;20026;-61
2021/06/12 13:02:42;;;;;;;3.20;1.27;;;;;;;;;;5001580;28;20077;-62
2021/06/12 13:05:13;;;;;;;1.17;0.95;;;;;;;;;;5001581;28;20085;-64
2021/06/12 13:07:38;;;;;;;1.58;1.40;;;;;;;;;;4999982;28;20527;-62
2021/06/12 13:10:11;;;;;;;1.20;1.15;;;;;;;;;;5004003;28;20066;-63
2021/06/12 13:12:37;;;;;;;1.33;1.23;;;;;;;;;;5006735;28;20388;-63
2021/06/12 13:15:10;;;;;;;2.55;1.33;;;;;;;;;;5008681;28;20076;-63
2021/06/12 13:17:37;;;;;;;2.13;1.08;;;;;;;;;;5001411;28;20433;-62
2021/06/12 13:20:08;;;;;;;1.70;1.20;;;;;;;;;;5001577;28;20033;-61
2021/06/12 13:22:34;;;;;;;1.20;1.10;;;;;;;;;;5001164;28;20496;-61
2021/06/12 13:25:14;;;;;;;1.90;1.33;;;;;;;;;;4993935;28;20548;-62
2021/06/12 13:27:48;;;;;;;2.25;1.10;;;;;;;;;;4996183;28;20030;-61
2021/06/12 13:30:17;;;;;;;1.75;1.23;;;;;;;;;;4999279;28;20030;-60
2021/06/12 13:33:09;;;;;;;1.02;1.00;;;;;;;;;;5006843;28;20566;-60
2021/06/12 13:35:42;;;;;;;1.38;1.27;;;;;;;;;;5006733;28;20671;-61
2021/06/12 13:38:15;;;;;;;1.90;1.10;;;;;;;;;;5001232;28;20149;-61
2021/06/12 13:40:59;;;;;;;1.85;1.55;;;;;;;;;;4999595;28;20022;-62
2021/06/12 13:43:27;;;;;;;1.60;1.50;;;;;;;;;;5004957;28;20060;-62
2021/06/12 13:45:55;;;;;;;2.83;1.02;;;;;;;;;;4999779;28;20083;-61
2021/06/12 13:48:23;;;;;;;2.40;1.00;;;;;;;;;;5003435;28;20038;-63
2021/06/12 13:50:49;;;;;;;2.35;1.10;;;;;;;;;;5003316;28;20125;-63
2021/06/12 13:53:15;;;;;;;1.08;0.95;;;;;;;;;;5002710;28;20117;-63
2021/06/12 13:55:42;;;;;;;2.58;1.80;;;;;;;;;;5007109;28;20041;-64
2021/06/12 13:58:08;;;;;;;2.38;0.88;;;;;;;;;;4998902;28;20075;-64
2021/06/12 14:00:34;;;;;;;1.50;0.80;;;;;;;;;;5003133;28;20480;-63
2021/06/12 14:03:00;;;;;;;3.17;0.95;;;;;;;;;;4999486;28;20133;-63
2021/06/12 14:05:26;;;;;;;1.23;1.00;;;;;;;;;;4996474;28;20182;-64
2021/06/12 14:07:51;;;;;;;5.18;1.00;;;;;;;;;;4998851;28;20034;-65
2021/06/12 14:10:17;;;;;;;1.83;0.95;;;;;;;;;;5003009;28;20030;-65
2021/06/12 14:12:43;;;;;;;1.05;0.90;;;;;;;;;;5001386;28;20389;-63
2021/06/12 14:15:10;;;;;;;1.75;0.93;;;;;;;;;;5005742;28;20052;-63
2021/06/12 14:17:36;;;;;;;0.73;0.73;;;;;;;;;;5003791;28;20115;-62
2021/06/12 14:20:08;;;;;;;2.00;1.00;;;;;;;;;;4999839;28;20480;-63
2021/06/12 14:22:33;;;;;;;1.70;0.90;;;;;;;;;;5001320;28;20026;-65
2021/06/12 14:24:59;;;;;;;0.90;0.90;;;;;;;;;;4996962;28;20036;-64
2021/06/12 14:27:25;;;;;;;0.80;0.80;;;;;;;;;;5004595;28;20120;-64
2021/06/12 14:29:51;;;;;;;1.75;0.90;;;;;;;;;;5001676;28;20400;-65
2021/06/12 14:32:18;;;;;;;0.90;0.60;;;;;;;;;;5017063;28;20117;-63
2021/06/12 14:34:43;;;;;;;1.10;0.85;;;;;;;;;;4995174;28;20144;-64
2021/06/12 14:37:09;;;;;;;1.10;0.90;;;;;;;;;;5002839;28;20109;-64
2021/06/12 14:39:34;;;;;;;1.13;1.00;;;;;;;;;;5002141;28;20103;-65
2021/06/12 14:42:00;;;;;;;1.20;1.10;;;;;;;;;;5004815;28;20091;-63
2021/06/12 14:44:26;;;;;;;1.15;0.80;;;;;;;;;;4997006;28;20030;-62
2021/06/12 14:46:54;;;;;;;2.83;0.85;;;;;;;;;;5000872;28;20034;-64
2021/06/12 14:49:19;;;;;;;0.77;0.77;;;;;;;;;;5005795;28;20124;-64
2021/06/12 14:51:45;;;;;;;1.58;0.80;;;;;;;;;;5000319;28;20085;-63
2021/06/12 14:54:10;;;;;;;0.95;0.75;;;;;;;;;;5001765;28;20026;-63
2021/06/12 14:56:36;;;;;;;2.22;0.70;;;;;;;;;;5006042;28;20060;-63
2021/06/12 14:59:02;;;;;;;0.70;0.70;;;;;;;;;;5000517;28;20073;-64
2021/06/12 15:01:28;;;;;;;2.38;0.75;;;;;;;;;;4995311;28;20037;-65